Terminal Aerodrome Forecast
Issued by NWS

Home | Current Version | Previous Version | Text Only | Print | Product List | Glossary On
Versions: 1 2 3 4 5 6 7 8 9 10 11 12 13
000
FTUS42 TJSJ 051754 AAA
TAFJBQ
TAF AMD
TJBQ 051754Z 0518/0618 08015G19KT P6SM VCSH SCT030
      TEMPO 0518/0520 SHRA SCT025 BKN040
     FM052230 11010KT P6SM VCSH FEW030
     FM061330 08018G25KT P6SM FEW030 SCT050=

USA.gov is the U.S. government's official web portal to all federal, state and local government web resources and services.